Time;durP1;ratioP1;P1;durP2;ratioP2;P2;SDS_P1;SDS_P2;PMS_P1;PMS_P2;Temp;Humidity;BMP_temperature;BMP_pressure;BME280_temperature;BME280_humidity;BME280_pressure;Samples;Min_cycle;Max_cycle;Signal;HPM_P1;HPM_P2
2023/12/06 00:01:33;;;;;;;52.73;34.23;;;1.30;99.90;;;;;;4970397;28;20210;-55
2023/12/06 00:03:59;;;;;;;52.97;34.37;;;1.30;99.90;;;;;;4989600;28;20202;-54
2023/12/06 00:06:24;;;;;;;61.30;36.13;;;1.20;99.90;;;;;;4988657;28;20207;-54
2023/12/06 00:08:52;;;;;;;57.57;35.97;;;1.30;99.90;;;;;;4995380;28;20209;-54
2023/12/06 00:11:18;;;;;;;55.30;33.97;;;1.10;99.90;;;;;;4996828;28;20293;-57
2023/12/06 00:13:44;;;;;;;49.13;34.13;;;1.20;99.90;;;;;;5004233;28;20690;-54
2023/12/06 00:16:09;;;;;;;52.77;34.23;;;1.20;99.90;;;;;;4998944;28;20201;-53
2023/12/06 00:18:34;;;;;;;58.83;35.63;;;1.30;99.90;;;;;;4998176;28;20246;-56
2023/12/06 00:21:00;;;;;;;50.13;32.83;;;1.40;99.90;;;;;;5001081;28;20226;-55
2023/12/06 00:23:26;;;;;;;51.83;33.63;;;1.50;99.90;;;;;;4996760;28;20685;-53
2023/12/06 00:25:51;;;;;;;49.53;34.23;;;1.60;99.90;;;;;;4999820;28;20289;-52
2023/12/06 00:28:17;;;;;;;54.23;33.00;;;1.50;99.90;;;;;;5001490;28;20202;-53
2023/12/06 00:30:42;;;;;;;47.03;31.23;;;1.30;99.90;;;;;;4995544;28;20206;-54
2023/12/06 00:33:08;;;;;;;53.00;35.37;;;1.40;99.90;;;;;;4999415;28;20212;-53
2023/12/06 00:35:33;;;;;;;56.23;35.10;;;1.50;99.90;;;;;;5001298;28;20206;-52
2023/12/06 00:37:59;;;;;;;54.20;33.23;;;1.40;99.90;;;;;;4997141;28;20578;-53
2023/12/06 00:40:25;;;;;;;58.07;34.50;;;1.50;99.90;;;;;;4997246;28;20210;-53
2023/12/06 00:42:50;;;;;;;51.80;32.20;;;1.40;99.90;;;;;;4994745;28;20281;-54
2023/12/06 00:45:16;;;;;;;54.40;33.63;;;1.50;99.90;;;;;;4997461;28;20227;-52
2023/12/06 00:47:41;;;;;;;50.40;33.60;;;1.60;99.90;;;;;;5001302;28;20701;-53
2023/12/06 00:50:07;;;;;;;51.30;32.97;;;1.60;99.90;;;;;;4997860;28;20586;-52
2023/12/06 00:52:32;;;;;;;52.07;32.93;;;1.50;99.90;;;;;;4997848;28;20743;-53
2023/12/06 00:54:58;;;;;;;52.30;34.80;;;1.70;99.90;;;;;;4998597;28;20256;-52
2023/12/06 00:57:23;;;;;;;45.80;30.70;;;1.60;99.90;;;;;;4978318;28;20212;-53
2023/12/06 00:59:49;;;;;;;53.23;34.80;;;1.60;99.90;;;;;;4994681;28;20218;-52
2023/12/06 01:02:14;;;;;;;52.93;34.10;;;1.40;99.90;;;;;;4996965;28;20253;-54
2023/12/06 01:04:40;;;;;;;50.77;32.77;;;1.50;99.90;;;;;;4979236;28;20200;-54
2023/12/06 01:07:06;;;;;;;60.07;34.13;;;1.50;99.90;;;;;;5004123;28;20847;-53
2023/12/06 01:09:31;;;;;;;51.30;32.77;;;1.70;99.90;;;;;;4996817;28;20197;-53
2023/12/06 01:11:59;;;;;;;52.57;33.23;;;1.50;99.90;;;;;;5000456;28;20212;-52
2023/12/06 01:14:25;;;;;;;52.53;31.67;;;1.50;99.90;;;;;;5000828;28;20289;-53
2023/12/06 01:16:51;;;;;;;51.27;33.47;;;1.60;99.90;;;;;;4980872;28;20203;-55
2023/12/06 01:19:16;;;;;;;53.27;33.30;;;1.70;99.90;;;;;;4996857;28;20211;-53
2023/12/06 01:21:42;;;;;;;53.53;34.30;;;1.60;99.90;;;;;;4996138;28;20218;-51
2023/12/06 01:24:08;;;;;;;49.23;33.43;;;1.60;99.90;;;;;;4979368;28;20230;-53
2023/12/06 01:26:33;;;;;;;54.23;34.13;;;1.50;99.90;;;;;;5002674;28;20611;-54
2023/12/06 01:29:02;;;;;;;55.27;34.77;;;1.40;99.90;;;;;;5003325;28;20202;-53
2023/12/06 01:31:27;;;;;;;53.10;34.33;;;1.60;99.90;;;;;;4980571;28;20198;-53
2023/12/06 01:33:53;;;;;;;51.57;34.67;;;1.60;99.90;;;;;;4980639;28;20202;-53
2023/12/06 01:36:18;;;;;;;54.40;36.47;;;1.60;99.90;;;;;;4996568;28;21060;-51
2023/12/06 01:38:44;;;;;;;60.93;35.60;;;1.50;99.90;;;;;;4980639;28;20196;-54
2023/12/06 01:41:12;;;;;;;58.03;37.20;;;1.60;99.90;;;;;;4996108;28;20218;-53
2023/12/06 01:43:44;;;;;;;55.40;32.73;;;1.60;99.90;;;;;;4999001;28;20221;-54
2023/12/06 01:46:10;;;;;;;52.43;34.23;;;1.60;99.90;;;;;;4991564;28;20210;-52
2023/12/06 01:48:42;;;;;;;56.83;36.00;;;1.60;99.90;;;;;;4983702;28;20283;-52
2023/12/06 01:51:08;;;;;;;53.43;33.83;;;1.60;99.90;;;;;;4989562;28;20225;-52
2023/12/06 01:53:34;;;;;;;56.17;35.07;;;1.60;99.90;;;;;;5002794;28;20797;-52
2023/12/06 01:56:00;;;;;;;55.90;34.83;;;1.70;99.90;;;;;;5000104;28;20211;-53
2023/12/06 01:58:28;;;;;;;55.40;34.47;;;1.70;99.90;;;;;;4989505;28;20208;-53
2023/12/06 02:00:54;;;;;;;59.97;35.53;;;1.60;99.90;;;;;;4975205;28;20317;-52
2023/12/06 02:03:20;;;;;;;54.17;34.80;;;1.50;99.90;;;;;;4998995;28;20341;-53
2023/12/06 02:05:47;;;;;;;50.37;32.77;;;1.60;99.90;;;;;;4995407;28;20211;-54
2023/12/06 02:08:13;;;;;;;53.37;34.07;;;1.70;99.90;;;;;;4991958;28;20211;-52
2023/12/06 02:10:38;;;;;;;47.43;31.47;;;1.60;99.90;;;;;;4998466;28;20285;-62
2023/12/06 02:13:04;;;;;;;47.63;31.27;;;1.80;99.90;;;;;;5002977;28;20282;-63
2023/12/06 02:15:30;;;;;;;51.53;33.93;;;1.90;99.90;;;;;;4994567;28;20202;-53
2023/12/06 02:17:55;;;;;;;55.80;35.07;;;1.90;99.90;;;;;;4996555;28;20223;-51
2023/12/06 02:20:22;;;;;;;56.00;34.70;;;2.00;99.90;;;;;;4999595;28;20218;-51
2023/12/06 02:22:49;;;;;;;52.90;35.17;;;2.00;99.90;;;;;;5004442;28;20685;-53
2023/12/06 02:25:15;;;;;;;54.20;34.33;;;2.00;99.90;;;;;;5002096;28;20288;-53
2023/12/06 02:27:45;;;;;;;51.03;32.90;;;1.80;99.90;;;;;;5002073;28;20224;-53
2023/12/06 02:30:12;;;;;;;50.70;32.73;;;1.60;99.90;;;;;;5000865;28;20216;-52
2023/12/06 02:32:38;;;;;;;45.67;32.87;;;1.50;99.90;;;;;;5001285;28;20668;-52
2023/12/06 02:35:10;;;;;;;49.90;33.50;;;1.60;99.90;;;;;;4998657;28;20293;-53
2023/12/06 02:37:38;;;;;;;54.13;35.90;;;1.40;99.90;;;;;;4997555;28;20216;-53
2023/12/06 02:40:09;;;;;;;49.97;32.40;;;1.50;99.90;;;;;;5005928;28;20208;-52
2023/12/06 02:42:35;;;;;;;51.47;33.30;;;1.40;99.90;;;;;;5000384;28;20220;-52
2023/12/06 02:45:01;;;;;;;51.77;34.43;;;1.60;99.90;;;;;;4996904;28;20213;-55
2023/12/06 02:47:27;;;;;;;55.60;35.27;;;1.60;99.90;;;;;;5000647;28;20200;-51
2023/12/06 02:49:53;;;;;;;53.57;34.83;;;1.70;99.90;;;;;;5002269;28;20725;-51
2023/12/06 02:52:19;;;;;;;56.17;34.50;;;1.60;99.90;;;;;;4997057;28;20672;-52
2023/12/06 02:54:44;;;;;;;56.87;33.40;;;1.60;99.90;;;;;;5001165;28;20205;-52
2023/12/06 02:57:10;;;;;;;57.07;35.10;;;1.60;99.90;;;;;;5001414;28;20618;-52
2023/12/06 02:59:35;;;;;;;50.40;32.37;;;1.70;99.90;;;;;;4991656;28;20200;-53
2023/12/06 03:02:01;;;;;;;54.93;36.10;;;1.70;99.90;;;;;;4999767;28;20222;-51
2023/12/06 03:04:26;;;;;;;50.10;31.83;;;1.80;99.90;;;;;;5001327;28;20982;-52
2023/12/06 03:06:52;;;;;;;52.20;33.93;;;1.90;99.90;;;;;;4999208;28;20882;-52
2023/12/06 03:09:17;;;;;;;51.80;32.87;;;1.90;99.90;;;;;;5000967;28;20220;-51
2023/12/06 03:11:42;;;;;;;52.30;33.37;;;1.70;99.90;;;;;;4987145;28;20257;-51
2023/12/06 03:14:08;;;;;;;51.53;32.80;;;1.80;99.90;;;;;;4989690;28;20289;-51
2023/12/06 03:16:33;;;;;;;50.73;33.13;;;1.80;99.90;;;;;;4988491;28;21017;-51
2023/12/06 03:19:00;;;;;;;56.40;33.27;;;1.90;99.90;;;;;;4998694;28;20201;-52
2023/12/06 03:21:26;;;;;;;48.53;30.27;;;1.80;99.90;;;;;;4992922;28;20205;-51
2023/12/06 03:23:51;;;;;;;48.67;32.73;;;1.70;99.90;;;;;;4995566;28;20213;-52
2023/12/06 03:26:17;;;;;;;58.33;33.93;;;1.70;99.90;;;;;;4997480;28;20216;-51
2023/12/06 03:28:42;;;;;;;52.73;33.40;;;1.70;99.90;;;;;;4996750;28;20248;-52
2023/12/06 03:31:08;;;;;;;50.83;32.40;;;1.70;99.90;;;;;;4993163;28;20216;-52
2023/12/06 03:33:33;;;;;;;53.63;33.30;;;1.60;99.90;;;;;;5000518;28;20202;-52
2023/12/06 03:36:01;;;;;;;53.83;33.50;;;1.50;99.90;;;;;;4995363;28;20238;-52
2023/12/06 03:38:27;;;;;;;49.70;34.37;;;1.60;99.90;;;;;;5001405;28;20218;-52
2023/12/06 03:40:52;;;;;;;52.77;34.50;;;1.70;99.90;;;;;;4978830;28;20212;-52
2023/12/06 03:43:18;;;;;;;53.63;32.73;;;1.90;99.90;;;;;;4998031;28;20984;-53
2023/12/06 03:45:43;;;;;;;53.33;34.20;;;1.70;99.90;;;;;;4995201;28;20200;-53
2023/12/06 03:48:09;;;;;;;52.57;34.50;;;1.70;99.90;;;;;;5003556;28;20213;-53
2023/12/06 03:50:35;;;;;;;57.70;33.40;;;1.60;99.90;;;;;;4992755;28;20231;-52
2023/12/06 03:53:00;;;;;;;48.33;32.57;;;1.70;99.90;;;;;;4961885;28;20519;-52
2023/12/06 03:55:26;;;;;;;53.23;35.63;;;1.80;99.90;;;;;;4977653;28;20827;-52
2023/12/06 03:57:51;;;;;;;49.97;33.87;;;1.90;99.90;;;;;;4963923;28;20200;-51
2023/12/06 04:00:17;;;;;;;51.50;35.27;;;2.00;99.90;;;;;;4983009;28;20208;-52
2023/12/06 04:02:42;;;;;;;51.43;31.93;;;1.90;99.90;;;;;;4983506;28;20252;-51
2023/12/06 04:05:08;;;;;;;52.90;32.10;;;1.90;99.90;;;;;;4979489;28;20278;-51
2023/12/06 04:07:34;;;;;;;48.80;33.60;;;1.90;99.90;;;;;;4976837;28;20205;-52
2023/12/06 04:09:59;;;;;;;50.13;34.03;;;1.90;99.90;;;;;;4979356;28;20265;-51
2023/12/06 04:12:25;;;;;;;53.37;33.60;;;1.90;99.90;;;;;;4979788;28;20237;-52
2023/12/06 04:14:53;;;;;;;51.80;34.43;;;1.70;99.90;;;;;;4982398;28;20214;-52
2023/12/06 04:17:18;;;;;;;51.37;34.20;;;1.70;99.90;;;;;;4979703;28;20460;-53
2023/12/06 04:19:44;;;;;;;49.17;32.13;;;1.70;99.90;;;;;;4980032;28;20249;-52
2023/12/06 04:22:09;;;;;;;53.47;32.43;;;1.70;99.90;;;;;;4981226;28;20998;-52
2023/12/06 04:24:37;;;;;;;47.93;32.93;;;1.80;99.90;;;;;;4979906;28;20578;-52
2023/12/06 04:27:03;;;;;;;59.13;34.63;;;1.80;99.90;;;;;;4975252;28;20194;-52
2023/12/06 04:29:29;;;;;;;54.93;34.17;;;1.80;99.90;;;;;;4975332;28;20194;-52
2023/12/06 04:31:54;;;;;;;55.03;34.50;;;1.80;99.90;;;;;;4982263;28;20707;-53
2023/12/06 04:34:20;;;;;;;54.43;35.03;;;1.80;99.90;;;;;;4982533;28;20924;-52
2023/12/06 04:36:45;;;;;;;57.20;33.77;;;1.90;99.90;;;;;;4983838;28;20282;-52
2023/12/06 04:39:11;;;;;;;50.93;31.60;;;1.90;99.90;;;;;;4980892;28;20218;-52
2023/12/06 04:41:37;;;;;;;56.13;34.20;;;1.90;99.90;;;;;;4978881;28;20999;-52
2023/12/06 04:44:02;;;;;;;49.43;31.90;;;1.70;99.90;;;;;;4980212;28;20203;-52
2023/12/06 04:46:28;;;;;;;51.77;31.90;;;1.80;99.90;;;;;;4976662;28;20311;-66
2023/12/06 04:48:53;;;;;;;54.60;33.30;;;2.00;99.90;;;;;;4979679;28;20207;-53
2023/12/06 04:51:18;;;;;;;46.37;31.93;;;2.00;99.90;;;;;;4986727;28;20230;-53
2023/12/06 04:53:44;;;;;;;50.00;33.27;;;1.90;99.90;;;;;;4996277;28;20207;-53
2023/12/06 04:56:11;;;;;;;50.63;33.40;;;1.90;99.90;;;;;;4997122;28;20381;-52
2023/12/06 04:58:37;;;;;;;53.17;31.17;;;2.00;99.90;;;;;;4995740;28;20642;-57
2023/12/06 05:01:04;;;;;;;50.70;33.43;;;2.10;99.90;;;;;;4994546;28;20846;-53
2023/12/06 05:03:30;;;;;;;52.40;31.93;;;2.10;99.90;;;;;;4979979;28;20235;-54
2023/12/06 05:05:55;;;;;;;51.33;32.13;;;2.00;99.90;;;;;;4999305;28;20235;-54
2023/12/06 05:08:21;;;;;;;51.90;33.37;;;1.90;99.90;;;;;;4991663;22;20249;-53
2023/12/06 05:10:47;;;;;;;52.67;32.53;;;2.00;99.90;;;;;;5012819;28;20244;-53
2023/12/06 05:13:13;;;;;;;55.83;34.07;;;1.90;99.90;;;;;;5016141;28;20201;-54
2023/12/06 05:15:39;;;;;;;53.13;31.60;;;2.00;99.90;;;;;;5011485;28;20200;-53
2023/12/06 05:18:04;;;;;;;54.80;34.23;;;2.10;99.90;;;;;;5014343;28;20970;-53
2023/12/06 05:20:30;;;;;;;54.57;35.93;;;1.90;99.90;;;;;;5014514;28;20214;-53
2023/12/06 05:22:55;;;;;;;51.40;33.23;;;1.90;99.90;;;;;;5008171;28;20989;-54
2023/12/06 05:25:21;;;;;;;51.00;33.40;;;1.90;99.90;;;;;;5000229;28;20764;-53
2023/12/06 05:27:46;;;;;;;51.57;33.67;;;2.00;99.90;;;;;;5002761;28;20207;-53
2023/12/06 05:30:12;;;;;;;53.40;34.83;;;2.10;99.90;;;;;;4994301;28;20215;-53
2023/12/06 05:32:38;;;;;;;57.00;33.17;;;2.10;99.90;;;;;;4997980;28;20279;-53
2023/12/06 05:35:05;;;;;;;53.10;34.43;;;2.00;99.90;;;;;;5002666;28;20220;-53
2023/12/06 05:37:30;;;;;;;54.57;33.90;;;1.90;99.90;;;;;;5006653;28;20222;-53
2023/12/06 05:39:56;;;;;;;48.97;31.97;;;1.90;99.90;;;;;;5001903;28;20844;-53
2023/12/06 05:42:21;;;;;;;56.27;34.20;;;1.90;99.90;;;;;;4999948;28;20225;-53
2023/12/06 05:44:47;;;;;;;56.33;35.50;;;2.00;99.90;;;;;;4998271;28;20359;-55
2023/12/06 05:47:12;;;;;;;53.50;32.37;;;2.00;99.90;;;;;;5002590;28;20206;-53
2023/12/06 05:49:38;;;;;;;50.17;33.40;;;1.90;99.90;;;;;;5005848;28;20994;-53
2023/12/06 05:52:04;;;;;;;60.23;34.10;;;1.80;99.90;;;;;;5001063;28;20311;-52
2023/12/06 05:54:29;;;;;;;52.47;32.90;;;1.90;99.90;;;;;;5002445;28;20883;-53
2023/12/06 05:56:54;;;;;;;61.07;34.13;;;1.90;99.90;;;;;;5001675;28;20207;-53
2023/12/06 05:59:20;;;;;;;48.63;31.77;;;1.70;99.90;;;;;;5003580;28;20209;-53
2023/12/06 06:01:45;;;;;;;54.53;35.03;;;1.70;99.90;;;;;;4982422;28;20198;-52
2023/12/06 06:04:11;;;;;;;55.13;35.57;;;1.60;99.90;;;;;;5009665;28;20782;-52
2023/12/06 06:06:37;;;;;;;48.43;34.47;;;1.70;99.90;;;;;;4980181;28;20264;-57
2023/12/06 06:09:02;;;;;;;55.13;35.07;;;1.80;99.90;;;;;;4986715;28;20257;-52
2023/12/06 06:11:28;;;;;;;50.40;31.70;;;1.80;99.90;;;;;;5019138;28;20839;-53
2023/12/06 06:13:54;;;;;;;59.50;35.33;;;1.80;99.90;;;;;;4996731;28;20880;-52
2023/12/06 06:16:20;;;;;;;53.80;34.73;;;1.90;99.90;;;;;;5016714;28;20597;-54
2023/12/06 06:18:46;;;;;;;55.67;34.23;;;2.00;99.90;;;;;;5008814;28;20702;-53
2023/12/06 06:21:11;;;;;;;55.10;32.63;;;2.00;99.90;;;;;;5014475;28;20272;-52
2023/12/06 06:23:37;;;;;;;54.10;33.63;;;2.00;99.90;;;;;;4993217;28;20232;-52
2023/12/06 06:26:02;;;;;;;50.07;34.20;;;2.00;99.90;;;;;;5012080;28;20203;-53
2023/12/06 06:28:29;;;;;;;53.97;33.13;;;2.00;99.90;;;;;;4992565;28;20213;-53
2023/12/06 06:30:55;;;;;;;48.20;32.47;;;2.10;99.90;;;;;;5010782;28;20283;-53
2023/12/06 06:33:20;;;;;;;53.50;33.73;;;2.10;99.90;;;;;;5002064;28;20387;-53
2023/12/06 06:35:46;;;;;;;53.80;33.40;;;2.10;99.90;;;;;;5020543;28;20287;-53
2023/12/06 06:38:11;;;;;;;51.57;32.47;;;2.20;99.90;;;;;;5013218;28;20760;-52
2023/12/06 06:40:37;;;;;;;54.70;33.80;;;2.20;99.90;;;;;;4994049;28;20205;-52
2023/12/06 06:43:03;;;;;;;52.80;34.50;;;2.10;99.90;;;;;;5017096;28;20228;-52
2023/12/06 06:45:28;;;;;;;53.03;33.27;;;2.10;99.90;;;;;;5007868;28;20793;-52
2023/12/06 06:47:54;;;;;;;57.40;35.63;;;2.10;99.90;;;;;;5021741;28;20232;-52
2023/12/06 06:50:20;;;;;;;54.00;34.10;;;2.00;99.90;;;;;;5020251;28;20705;-68
2023/12/06 06:52:46;;;;;;;55.70;35.00;;;2.00;99.90;;;;;;5016367;28;20255;-53
2023/12/06 06:55:11;;;;;;;52.40;34.67;;;2.00;99.90;;;;;;5013666;28;20208;-53
2023/12/06 06:57:37;;;;;;;56.93;34.40;;;2.00;99.90;;;;;;5012923;28;20569;-55
2023/12/06 07:00:04;;;;;;;53.07;33.93;;;1.90;99.90;;;;;;5011738;28;20326;-53
2023/12/06 07:02:29;;;;;;;53.43;35.90;;;1.80;99.90;;;;;;5021819;28;20773;-53
2023/12/06 07:04:55;;;;;;;57.60;35.27;;;1.80;99.90;;;;;;5014989;28;20204;-52
2023/12/06 07:07:21;;;;;;;57.00;34.20;;;1.80;99.90;;;;;;5017209;28;20246;-52
2023/12/06 07:09:46;;;;;;;57.57;35.57;;;1.70;99.90;;;;;;5017803;28;20250;-52
2023/12/06 07:12:12;;;;;;;51.23;33.77;;;1.70;99.90;;;;;;5015053;28;20276;-52
2023/12/06 07:14:37;;;;;;;58.53;35.10;;;1.80;99.90;;;;;;5005539;28;20525;-52
2023/12/06 07:17:04;;;;;;;51.63;33.70;;;1.70;99.90;;;;;;5019113;28;20290;-53
2023/12/06 07:19:30;;;;;;;59.03;35.97;;;1.70;99.90;;;;;;5021031;28;20188;-52
2023/12/06 07:21:55;;;;;;;58.03;35.80;;;1.60;99.90;;;;;;5021334;28;20218;-52
2023/12/06 07:24:21;;;;;;;54.80;35.07;;;1.80;99.90;;;;;;5026014;28;20197;-51
2023/12/06 07:26:47;;;;;;;51.70;35.10;;;1.80;99.90;;;;;;5022627;28;20203;-52
2023/12/06 07:29:12;;;;;;;55.77;35.23;;;1.80;99.90;;;;;;5026855;28;20190;-51
2023/12/06 07:31:39;;;;;;;55.33;33.87;;;2.00;99.90;;;;;;5027079;28;20189;-52
2023/12/06 07:34:05;;;;;;;56.40;34.13;;;2.00;99.90;;;;;;5004275;28;20197;-53
2023/12/06 07:36:31;;;;;;;59.00;35.40;;;2.00;99.90;;;;;;5019032;28;20195;-52
2023/12/06 07:38:56;;;;;;;56.57;35.20;;;1.90;99.90;;;;;;5024367;28;20242;-52
2023/12/06 07:41:22;;;;;;;51.83;33.87;;;1.90;99.90;;;;;;5009074;28;20193;-53
2023/12/06 07:43:48;;;;;;;54.53;34.50;;;1.90;99.90;;;;;;5015554;28;20225;-52
2023/12/06 07:46:13;;;;;;;54.33;34.03;;;1.90;99.90;;;;;;5022969;28;20769;-52
2023/12/06 07:48:39;;;;;;;53.57;33.83;;;1.80;99.90;;;;;;4994935;28;20274;-52
2023/12/06 07:51:04;;;;;;;55.00;35.40;;;1.80;99.90;;;;;;5024508;28;20230;-52
2023/12/06 07:53:30;;;;;;;57.57;33.27;;;1.80;99.90;;;;;;5031786;28;20969;-53
2023/12/06 07:55:55;;;;;;;58.20;35.40;;;1.90;99.90;;;;;;5024749;28;20651;-52
2023/12/06 07:58:22;;;;;;;56.00;36.90;;;1.80;99.90;;;;;;5020289;28;20275;-53
2023/12/06 08:00:48;;;;;;;55.93;36.70;;;1.90;99.90;;;;;;5028463;28;20197;-52
2023/12/06 08:03:13;;;;;;;60.13;37.83;;;1.70;99.90;;;;;;5030559;28;20217;-53
2023/12/06 08:05:39;;;;;;;60.63;36.70;;;1.90;99.90;;;;;;5030490;28;20184;-52
2023/12/06 08:08:05;;;;;;;58.07;34.93;;;1.80;99.90;;;;;;5024190;28;20236;-52
2023/12/06 08:10:33;;;;;;;56.93;37.17;;;1.90;99.90;;;;;;5027165;28;20192;-51
2023/12/06 08:12:59;;;;;;;56.93;35.73;;;2.00;99.90;;;;;;5022828;28;20675;-50
2023/12/06 08:15:25;;;;;;;64.93;37.00;;;1.90;99.90;;;;;;5034456;28;20201;-51
2023/12/06 08:17:50;;;;;;;53.77;36.57;;;1.90;99.90;;;;;;5023612;28;20746;-52
2023/12/06 08:20:16;;;;;;;57.63;35.43;;;1.90;99.90;;;;;;5019681;28;20210;-68
2023/12/06 08:22:41;;;;;;;66.13;36.37;;;2.00;99.90;;;;;;5019989;28;20216;-53
2023/12/06 08:25:07;;;;;;;55.87;36.07;;;1.80;99.90;;;;;;5016566;28;20291;-54
2023/12/06 08:27:34;;;;;;;62.80;37.20;;;2.00;99.90;;;;;;5017463;28;20308;-53
2023/12/06 08:30:00;;;;;;;58.07;36.70;;;1.90;99.90;;;;;;5015998;28;20197;-53
2023/12/06 08:32:26;;;;;;;60.58;42.70;;;1.80;99.90;;;;;;5019813;28;20403;-53
2023/12/06 08:34:52;;;;;;;56.97;37.03;;;1.80;99.90;;;;;;5010659;28;20986;-53
2023/12/06 08:37:18;;;;;;;57.87;34.80;;;1.90;99.90;;;;;;5015986;28;20365;-54
2023/12/06 08:39:44;;;;;;;50.60;33.97;;;1.80;99.90;;;;;;4998137;28;20248;-53
2023/12/06 08:42:12;;;;;;;54.97;35.43;;;1.90;99.90;;;;;;5012004;28;20233;-61
2023/12/06 08:44:38;;;;;;;55.93;33.93;;;1.90;99.90;;;;;;5009186;28;20284;-52
2023/12/06 08:47:04;;;;;;;57.63;36.30;;;2.00;99.90;;;;;;5001835;28;20218;-52
2023/12/06 08:49:30;;;;;;;55.37;35.30;;;2.10;99.90;;;;;;5004532;28;20231;-66
2023/12/06 08:51:55;;;;;;;54.57;33.63;;;2.10;99.90;;;;;;5016405;28;20722;-52
2023/12/06 08:54:21;;;;;;;52.67;34.97;;;2.20;99.90;;;;;;5011163;28;20207;-53
2023/12/06 08:56:47;;;;;;;54.27;34.77;;;2.20;99.90;;;;;;5013515;28;20690;-53
2023/12/06 08:59:12;;;;;;;54.23;34.97;;;2.30;99.90;;;;;;5014504;28;20201;-52
2023/12/06 09:01:37;;;;;;;54.87;33.07;;;2.40;99.90;;;;;;5011698;28;20684;-54
2023/12/06 09:04:03;;;;;;;47.27;31.57;;;2.30;99.90;;;;;;5011740;28;20758;-54
2023/12/06 09:06:29;;;;;;;55.67;35.13;;;2.20;99.90;;;;;;5014700;28;20239;-55
2023/12/06 09:08:54;;;;;;;53.67;34.20;;;2.30;99.90;;;;;;5013557;28;20642;-60
2023/12/06 09:11:20;;;;;;;47.60;32.00;;;2.30;99.90;;;;;;5016478;28;20209;-54
2023/12/06 09:13:46;;;;;;;51.87;31.57;;;2.30;99.90;;;;;;5017219;28;20206;-52
2023/12/06 09:16:12;;;;;;;52.13;32.30;;;2.20;99.90;;;;;;5012847;28;20317;-52
2023/12/06 09:18:38;;;;;;;52.47;32.10;;;2.30;99.90;;;;;;5013303;28;20255;-64
2023/12/06 09:21:04;;;;;;;52.07;30.87;;;2.30;99.90;;;;;;5012146;28;20223;-54
2023/12/06 09:23:30;;;;;;;51.80;34.30;;;2.30;99.90;;;;;;5016450;28;20229;-52
2023/12/06 09:25:56;;;;;;;45.37;30.73;;;2.30;99.90;;;;;;5014621;28;20691;-54
2023/12/06 09:28:22;;;;;;;55.57;33.93;;;2.30;99.90;;;;;;4994603;28;20824;-54
2023/12/06 09:30:47;;;;;;;51.53;34.40;;;2.30;99.90;;;;;;5014602;28;20264;-54
2023/12/06 09:33:13;;;;;;;51.37;32.30;;;2.30;99.90;;;;;;5016762;28;20205;-53
2023/12/06 09:35:40;;;;;;;50.40;31.93;;;2.30;99.90;;;;;;5015037;28;20619;-54
2023/12/06 09:38:05;;;;;;;53.77;33.23;;;2.30;99.90;;;;;;5017562;28;20339;-53
2023/12/06 09:40:31;;;;;;;51.07;33.40;;;2.30;99.90;;;;;;5010073;28;20807;-53
2023/12/06 09:43:01;;;;;;;55.70;31.53;;;2.20;99.90;;;;;;5009165;28;20713;-53
2023/12/06 09:45:27;;;;;;;48.60;32.33;;;2.10;99.90;;;;;;5010775;28;20230;-58
2023/12/06 09:47:55;;;;;;;51.10;30.97;;;2.20;99.90;;;;;;4991748;28;20199;-54
2023/12/06 09:50:21;;;;;;;50.83;31.97;;;2.30;99.90;;;;;;5008179;28;20210;-53
2023/12/06 09:52:53;;;;;;;48.00;31.23;;;2.40;99.90;;;;;;5013852;28;20289;-54
2023/12/06 09:55:23;;;;;;;54.07;32.80;;;2.30;99.90;;;;;;5017772;28;20224;-54
2023/12/06 09:57:51;;;;;;;51.10;32.23;;;2.30;99.90;;;;;;5015566;28;20217;-53
2023/12/06 10:00:17;;;;;;;51.47;34.37;;;2.30;99.90;;;;;;4994124;28;20684;-52
2023/12/06 10:02:57;;;;;;;43.30;29.97;;;2.30;99.90;;;;;;5012465;28;20221;-53
2023/12/06 10:05:22;;;;;;;54.70;33.07;;;2.50;99.90;;;;;;5009823;28;20187;-53
2023/12/06 10:07:48;;;;;;;44.87;29.43;;;2.50;99.90;;;;;;5013185;28;20226;-53
2023/12/06 10:10:15;;;;;;;50.63;32.63;;;2.50;99.90;;;;;;5011904;28;20298;-53
2023/12/06 10:12:52;;;;;;;50.93;32.60;;;2.40;99.90;;;;;;5012463;28;20324;-62
2023/12/06 10:15:18;;;;;;;52.40;33.07;;;2.40;99.90;;;;;;5010496;28;20207;-53
2023/12/06 10:17:44;;;;;;;53.47;31.73;;;2.40;99.90;;;;;;5018610;28;20286;-53
2023/12/06 10:20:10;;;;;;;47.53;30.43;;;2.40;99.90;;;;;;5014559;28;20294;-52
2023/12/06 10:22:36;;;;;;;51.63;32.20;;;2.40;99.90;;;;;;5014029;28;20295;-53
2023/12/06 10:25:05;;;;;;;49.10;30.63;;;2.50;99.90;;;;;;5012836;28;20686;-53
2023/12/06 10:27:30;;;;;;;59.27;33.33;;;2.50;99.90;;;;;;5018256;28;20256;-53
2023/12/06 10:29:56;;;;;;;48.07;31.80;;;2.50;99.90;;;;;;5013990;28;20202;-54
2023/12/06 10:32:22;;;;;;;46.50;29.20;;;2.40;99.90;;;;;;5012813;28;20218;-53
2023/12/06 10:34:48;;;;;;;46.93;31.97;;;2.50;99.90;;;;;;5017465;28;20294;-53
2023/12/06 10:37:21;;;;;;;46.43;30.07;;;2.60;99.90;;;;;;4998210;28;20214;-54
2023/12/06 10:39:49;;;;;;;48.10;30.57;;;2.60;99.90;;;;;;5015947;28;20784;-54
2023/12/06 10:42:19;;;;;;;50.37;31.47;;;2.50;99.90;;;;;;5005842;28;20229;-54
2023/12/06 10:44:45;;;;;;;47.27;29.87;;;2.70;99.90;;;;;;5010489;28;20676;-54
2023/12/06 10:47:11;;;;;;;44.40;29.60;;;2.50;99.90;;;;;;5010159;28;20216;-56
2023/12/06 10:49:38;;;;;;;48.63;29.10;;;2.50;99.90;;;;;;5011686;28;20318;-56
2023/12/06 10:52:04;;;;;;;45.53;29.10;;;2.60;99.90;;;;;;5011480;28;20198;-53
2023/12/06 10:54:30;;;;;;;46.43;31.43;;;2.60;99.90;;;;;;5011517;28;20196;-54
2023/12/06 10:56:56;;;;;;;44.90;29.83;;;2.50;99.90;;;;;;5013581;28;20213;-53
2023/12/06 10:59:25;;;;;;;48.47;33.00;;;2.60;99.90;;;;;;5005077;28;20203;-54
2023/12/06 11:01:54;;;;;;;45.43;29.73;;;2.60;99.90;;;;;;5008454;28;20237;-54
2023/12/06 11:04:26;;;;;;;47.03;30.43;;;2.70;99.90;;;;;;5013625;28;20839;-65
2023/12/06 11:07:18;;;;;;;49.07;30.60;;;2.70;99.90;;;;;;5007153;28;20283;-53
2023/12/06 11:10:09;;;;;;;41.83;29.33;;;2.50;99.90;;;;;;5012404;28;20209;-53
2023/12/06 11:13:01;;;;;;;46.80;29.27;;;2.60;99.90;;;;;;5010436;28;20648;-53
2023/12/06 11:15:52;;;;;;;52.07;31.57;;;2.70;99.90;;;;;;5010541;28;20228;-53
2023/12/06 11:18:19;;;;;;;49.00;31.40;;;2.70;99.90;;;;;;4995488;28;20206;-53
2023/12/06 11:20:45;;;;;;;44.83;30.63;;;2.70;99.90;;;;;;5012131;28;20286;-55
2023/12/06 11:23:11;;;;;;;45.67;30.37;;;2.80;99.90;;;;;;5015197;28;20753;-54
2023/12/06 11:25:42;;;;;;;46.07;29.60;;;2.80;99.90;;;;;;5011163;28;20285;-55
2023/12/06 11:28:12;;;;;;;44.40;27.90;;;2.70;99.90;;;;;;5012779;28;20753;-65
2023/12/06 11:30:51;;;;;;;42.97;28.93;;;2.80;99.90;;;;;;5009845;28;20542;-54
2023/12/06 11:33:17;;;;;;;48.03;31.33;;;2.90;99.90;;;;;;5013139;28;21153;-54
2023/12/06 11:35:43;;;;;;;48.83;30.17;;;2.80;99.90;;;;;;5007970;28;20576;-52
2023/12/06 11:38:09;;;;;;;47.00;30.93;;;3.00;99.90;;;;;;5008421;28;20938;-52
2023/12/06 11:40:34;;;;;;;51.73;32.17;;;2.80;99.90;;;;;;5008658;28;20298;-53
2023/12/06 11:43:04;;;;;;;46.33;28.63;;;2.80;99.90;;;;;;5009565;28;20219;-53
2023/12/06 11:45:31;;;;;;;44.20;30.53;;;2.80;99.90;;;;;;5006461;28;20282;-52
2023/12/06 11:48:01;;;;;;;43.77;30.40;;;2.80;99.90;;;;;;5011978;28;20199;-64
2023/12/06 11:50:27;;;;;;;47.93;29.90;;;2.80;99.90;;;;;;5009580;28;20286;-53
2023/12/06 11:52:54;;;;;;;42.53;30.17;;;2.70;99.90;;;;;;5010459;28;20448;-53
2023/12/06 11:55:21;;;;;;;51.20;30.60;;;2.70;99.90;;;;;;5011659;28;20198;-53
2023/12/06 11:58:07;;;;;;;52.20;32.20;;;2.70;99.90;;;;;;5010830;28;20851;-69
2023/12/06 12:00:34;;;;;;;47.30;28.93;;;2.70;99.90;;;;;;5009594;28;20281;-54
2023/12/06 12:03:02;;;;;;;46.60;30.53;;;2.80;99.90;;;;;;5011417;28;20238;-65
2023/12/06 12:05:28;;;;;;;46.77;30.07;;;2.80;99.90;;;;;;4994527;28;20763;-59
2023/12/06 12:07:54;;;;;;;50.80;31.30;;;2.50;99.90;;;;;;5006131;28;20233;-59
2023/12/06 12:10:20;;;;;;;49.20;30.13;;;2.60;99.90;;;;;;4996519;28;20702;-54
2023/12/06 12:12:48;;;;;;;47.43;31.60;;;2.60;99.90;;;;;;4997021;28;20206;-59
2023/12/06 12:15:14;;;;;;;43.13;28.97;;;2.70;99.90;;;;;;4995568;28;20200;-54
2023/12/06 12:17:40;;;;;;;52.37;32.97;;;2.60;99.90;;;;;;4996738;28;20231;-54
2023/12/06 12:20:06;;;;;;;50.50;30.77;;;2.60;99.90;;;;;;4996642;28;20322;-54
2023/12/06 12:22:43;;;;;;;47.43;30.93;;;2.70;99.90;;;;;;4997621;28;20216;-55
2023/12/06 12:25:08;;;;;;;51.13;29.77;;;2.70;99.90;;;;;;4997857;28;20212;-55
2023/12/06 12:27:33;;;;;;;46.40;29.40;;;2.60;99.90;;;;;;4978675;28;20214;-55
2023/12/06 12:29:59;;;;;;;50.20;32.77;;;2.70;99.90;;;;;;4999902;28;20207;-55
2023/12/06 12:32:27;;;;;;;49.50;31.03;;;2.70;99.90;;;;;;4995678;28;20843;-70